MTN2869 KDEN-KSDF
Flight info
| Callsign | MTN2869 |
|---|---|
| Flight time | 1h 59m |
| Altitude | 35000 |
| Route | EXTAN7 SHAYK SLN IMOUT MBELL5 |
| Aircraft | CRJ9/M-SDFGIRWY/S |
Departure
| Time | 2026-05-07 12:14 |
|---|---|
| Airport | Denver International Airport (KDEN) |
Arrival
| Time | 2026-05-07 14:13 |
|---|---|
| Airport | Louisville Muhammad Ali International Airport (KSDF) |
| Time | Latitude | Longitude | Altitude | Speed | Heading |
|---|---|---|---|---|---|
| 2026-05-07 12:00 | 39.85748 | -104.66691 | 5364 ft | 4 kts | 2° |
| 2026-05-07 12:01 | 39.85738 | -104.66692 | 5363 ft | 3 kts | 0° |
| 2026-05-07 12:02 | 39.85718 | -104.66691 | 5364 ft | 3 kts | 357° |
| 2026-05-07 12:02 | 39.85697 | -104.66690 | 5363 ft | 3 kts | 358° |
| 2026-05-07 12:02 | 39.85682 | -104.66689 | 5363 ft | 3 kts | 11° |
| 2026-05-07 12:02 | 39.85667 | -104.66698 | 5362 ft | 3 kts | 60° |
| 2026-05-07 12:03 | 39.85661 | -104.66714 | 5364 ft | 3 kts | 82° |
| 2026-05-07 12:08 | 39.85662 | -104.66709 | 5363 ft | 2 kts | 81° |
| 2026-05-07 12:09 | 39.85663 | -104.66684 | 5364 ft | 4 kts | 96° |
| 2026-05-07 12:09 | 39.85660 | -104.66629 | 5364 ft | 8 kts | 92° |
| 2026-05-07 12:09 | 39.85668 | -104.66545 | 5364 ft | 10 kts | 62° |
| 2026-05-07 12:09 | 39.85680 | -104.66450 | 5364 ft | 11 kts | 89° |
| 2026-05-07 12:10 | 39.85704 | -104.66356 | 5364 ft | 12 kts | 28° |
| 2026-05-07 12:10 | 39.85789 | -104.66348 | 5364 ft | 13 kts | 0° |
| 2026-05-07 12:10 | 39.85885 | -104.66347 | 5364 ft | 14 kts | 360° |
| 2026-05-07 12:10 | 39.85983 | -104.66342 | 5364 ft | 14 kts | 17° |
| 2026-05-07 12:11 | 39.86018 | -104.66241 | 5364 ft | 13 kts | 93° |
| 2026-05-07 12:11 | 39.86017 | -104.66169 | 5364 ft | 0 kts | 90° |
| 2026-05-07 12:12 | 39.86017 | -104.66164 | 5364 ft | 2 kts | 90° |
| 2026-05-07 12:12 | 39.86016 | -104.66127 | 5364 ft | 6 kts | 91° |
| 2026-05-07 12:12 | 39.86016 | -104.66060 | 5365 ft | 8 kts | 89° |
| 2026-05-07 12:12 | 39.85979 | -104.66016 | 5365 ft | 10 kts | 176° |
| 2026-05-07 12:13 | 39.85762 | -104.66017 | 5365 ft | 61 kts | 180° |
| 2026-05-07 12:13 | 39.85115 | -104.66024 | 5360 ft | 122 kts | 181° |
| 2026-05-07 12:13 | 39.84121 | -104.66047 | 5398 ft | 157 kts | 181° |
| 2026-05-07 12:13 | 39.82990 | -104.66035 | 5789 ft | 167 kts | 177° |
| 2026-05-07 12:14 | 39.81827 | -104.65941 | 6447 ft | 169 kts | 180° |
| 2026-05-07 12:14 | 39.80621 | -104.65758 | 6909 ft | 183 kts | 159° |
| 2026-05-07 12:14 | 39.79637 | -104.64556 | 7116 ft | 209 kts | 124° |
| 2026-05-07 12:14 | 39.78842 | -104.62816 | 7269 ft | 239 kts | 121° |
| 2026-05-07 12:15 | 39.77966 | -104.60856 | 7618 ft | 261 kts | 122° |
| 2026-05-07 12:15 | 39.76966 | -104.58781 | 8093 ft | 280 kts | 116° |
| 2026-05-07 12:15 | 39.76479 | -104.56273 | 8610 ft | 294 kts | 91° |
| 2026-05-07 12:15 | 39.76460 | -104.53624 | 9560 ft | 292 kts | 84° |
| 2026-05-07 12:16 | 39.76563 | -104.50981 | 10456 ft | 297 kts | 82° |
| 2026-05-07 12:16 | 39.76708 | -104.48172 | 10679 ft | 325 kts | 82° |
| 2026-05-07 12:16 | 39.76830 | -104.45121 | 11018 ft | 349 kts | 84° |
| 2026-05-07 12:16 | 39.76885 | -104.41980 | 11874 ft | 355 kts | 85° |
| 2026-05-07 12:17 | 39.76909 | -104.38743 | 12766 ft | 361 kts | 86° |
| 2026-05-07 12:17 | 39.76906 | -104.35452 | 13679 ft | 367 kts | 87° |
| 2026-05-07 12:17 | 39.76871 | -104.32112 | 14495 ft | 373 kts | 87° |
| 2026-05-07 12:17 | 39.76844 | -104.28703 | 15277 ft | 380 kts | 86° |
| 2026-05-07 12:18 | 39.76820 | -104.25240 | 16063 ft | 387 kts | 86° |
| 2026-05-07 12:18 | 39.76799 | -104.21718 | 16827 ft | 393 kts | 86° |
| 2026-05-07 12:18 | 39.76777 | -104.18133 | 17593 ft | 400 kts | 86° |
| 2026-05-07 12:18 | 39.76767 | -104.14480 | 18353 ft | 407 kts | 86° |
| 2026-05-07 12:19 | 39.76728 | -104.10775 | 19039 ft | 413 kts | 87° |
| 2026-05-07 12:19 | 39.76683 | -104.07023 | 19722 ft | 417 kts | 87° |
| 2026-05-07 12:19 | 39.76645 | -104.03229 | 20402 ft | 422 kts | 87° |
| 2026-05-07 12:19 | 39.76613 | -103.99388 | 21068 ft | 427 kts | 87° |
| 2026-05-07 12:20 | 39.76578 | -103.95502 | 21726 ft | 432 kts | 87° |
| 2026-05-07 12:20 | 39.76469 | -103.91574 | 22360 ft | 439 kts | 92° |
| 2026-05-07 12:20 | 39.76050 | -103.87658 | 22985 ft | 445 kts | 97° |
| 2026-05-07 12:20 | 39.75484 | -103.83625 | 23601 ft | 451 kts | 98° |
| 2026-05-07 12:21 | 39.74891 | -103.79664 | 24133 ft | 454 kts | 98° |
| 2026-05-07 12:21 | 39.74317 | -103.75606 | 24640 ft | 457 kts | 96° |
| 2026-05-07 12:21 | 39.73912 | -103.71499 | 25148 ft | 459 kts | 93° |
| 2026-05-07 12:21 | 39.73639 | -103.67350 | 25640 ft | 462 kts | 91° |
| 2026-05-07 12:22 | 39.73385 | -103.63167 | 26126 ft | 466 kts | 92° |
| 2026-05-07 12:22 | 39.73087 | -103.58956 | 26595 ft | 470 kts | 93° |
| 2026-05-07 12:22 | 39.72750 | -103.54717 | 27052 ft | 473 kts | 93° |
| 2026-05-07 12:22 | 39.72409 | -103.50465 | 27599 ft | 474 kts | 93° |
| 2026-05-07 12:23 | 39.72067 | -103.46205 | 28146 ft | 474 kts | 93° |
| 2026-05-07 12:23 | 39.71723 | -103.41924 | 28613 ft | 477 kts | 93° |
| 2026-05-07 12:23 | 39.71375 | -103.37624 | 28944 ft | 482 kts | 93° |
| 2026-05-07 12:23 | 39.71021 | -103.33274 | 29260 ft | 487 kts | 93° |
| 2026-05-07 12:24 | 39.70664 | -103.28889 | 29704 ft | 488 kts | 93° |
| 2026-05-07 12:24 | 39.70304 | -103.24515 | 30260 ft | 486 kts | 93° |
| 2026-05-07 12:24 | 39.69946 | -103.20161 | 30790 ft | 482 kts | 93° |
| 2026-05-07 12:24 | 39.69588 | -103.15834 | 31270 ft | 480 kts | 93° |
| 2026-05-07 12:25 | 39.69230 | -103.11523 | 31673 ft | 480 kts | 93° |
| 2026-05-07 12:25 | 39.68870 | -103.07204 | 32004 ft | 481 kts | 93° |
| 2026-05-07 12:25 | 39.68512 | -103.02934 | 32318 ft | 483 kts | 93° |
| 2026-05-07 12:25 | 39.68147 | -102.98602 | 32659 ft | 482 kts | 93° |
| 2026-05-07 12:26 | 39.67781 | -102.94277 | 33044 ft | 481 kts | 93° |
| 2026-05-07 12:26 | 39.67414 | -102.89964 | 33422 ft | 480 kts | 93° |
| 2026-05-07 12:26 | 39.67047 | -102.85665 | 33778 ft | 479 kts | 93° |
| 2026-05-07 12:26 | 39.66679 | -102.81371 | 34088 ft | 479 kts | 93° |
| 2026-05-07 12:27 | 39.66309 | -102.77074 | 34345 ft | 479 kts | 94° |
| 2026-05-07 12:27 | 39.65935 | -102.72768 | 34560 ft | 480 kts | 94° |
| 2026-05-07 12:27 | 39.65560 | -102.68463 | 34757 ft | 481 kts | 94° |
| 2026-05-07 12:27 | 39.65181 | -102.64141 | 34900 ft | 484 kts | 94° |
| 2026-05-07 12:28 | 39.64799 | -102.59790 | 34966 ft | 488 kts | 94° |
| 2026-05-07 12:28 | 39.64018 | -102.50964 | 35018 ft | 496 kts | 94° |
| 2026-05-07 12:29 | 39.63221 | -102.42026 | 35033 ft | 499 kts | 94° |
| 2026-05-07 12:29 | 39.62420 | -102.33115 | 35025 ft | 502 kts | 94° |
| 2026-05-07 12:30 | 39.61605 | -102.24124 | 35036 ft | 502 kts | 95° |
| 2026-05-07 12:30 | 39.60780 | -102.15116 | 35023 ft | 502 kts | 95° |
| 2026-05-07 12:31 | 39.59950 | -102.06130 | 35024 ft | 501 kts | 95° |
| 2026-05-07 12:31 | 39.59137 | -101.97160 | 35008 ft | 500 kts | 94° |
| 2026-05-07 12:32 | 39.58380 | -101.88260 | 35010 ft | 499 kts | 94° |
| 2026-05-07 12:32 | 39.57668 | -101.79304 | 35009 ft | 499 kts | 94° |
| 2026-05-07 12:33 | 39.56587 | -101.65901 | 35022 ft | 498 kts | 94° |
| 2026-05-07 12:33 | 39.55856 | -101.56970 | 35020 ft | 498 kts | 94° |
| 2026-05-07 12:34 | 39.55119 | -101.48031 | 35021 ft | 498 kts | 94° |
| 2026-05-07 12:34 | 39.54318 | -101.39103 | 35021 ft | 499 kts | 97° |
| 2026-05-07 12:35 | 39.53062 | -101.30251 | 35033 ft | 499 kts | 101° |
| 2026-05-07 12:35 | 39.51669 | -101.21488 | 35037 ft | 499 kts | 100° |
| 2026-05-07 12:36 | 39.50348 | -101.12659 | 35036 ft | 499 kts | 100° |
| 2026-05-07 12:36 | 39.49033 | -101.03829 | 35031 ft | 499 kts | 100° |
| 2026-05-07 12:37 | 39.47706 | -100.94991 | 35035 ft | 500 kts | 100° |
| 2026-05-07 12:37 | 39.46373 | -100.86165 | 35038 ft | 500 kts | 100° |
| 2026-05-07 12:38 | 39.45033 | -100.77324 | 35040 ft | 500 kts | 100° |
| 2026-05-07 12:38 | 39.43684 | -100.68489 | 35045 ft | 501 kts | 100° |
| 2026-05-07 12:39 | 39.42337 | -100.59706 | 35048 ft | 501 kts | 101° |
| 2026-05-07 12:39 | 39.40975 | -100.50863 | 35047 ft | 502 kts | 101° |
| 2026-05-07 12:40 | 39.39603 | -100.42020 | 35048 ft | 502 kts | 101° |
| 2026-05-07 12:40 | 39.38225 | -100.33176 | 35053 ft | 502 kts | 101° |
| 2026-05-07 12:41 | 39.36837 | -100.24315 | 35054 ft | 503 kts | 101° |
| 2026-05-07 12:41 | 39.35441 | -100.15453 | 35050 ft | 503 kts | 101° |
| 2026-05-07 12:42 | 39.34037 | -100.06586 | 35047 ft | 504 kts | 102° |
| 2026-05-07 12:42 | 39.32627 | -99.97721 | 35041 ft | 504 kts | 102° |
| 2026-05-07 12:43 | 39.31207 | -99.88851 | 35038 ft | 505 kts | 102° |
| 2026-05-07 12:43 | 39.29778 | -99.79958 | 35040 ft | 505 kts | 102° |
| 2026-05-07 12:44 | 39.28351 | -99.71126 | 35047 ft | 506 kts | 102° |
| 2026-05-07 12:44 | 39.26906 | -99.62233 | 35052 ft | 507 kts | 102° |
| 2026-05-07 12:45 | 39.25453 | -99.53328 | 35063 ft | 507 kts | 102° |
| 2026-05-07 12:45 | 39.23992 | -99.44426 | 35067 ft | 508 kts | 102° |
| 2026-05-07 12:46 | 39.22524 | -99.35514 | 35069 ft | 508 kts | 103° |
| 2026-05-07 12:46 | 39.21295 | -99.28104 | 35068 ft | 508 kts | 103° |
| 2026-05-07 12:47 | 39.19812 | -99.19184 | 35073 ft | 509 kts | 103° |
| 2026-05-07 12:47 | 39.18319 | -99.10258 | 35079 ft | 509 kts | 103° |
| 2026-05-07 12:48 | 39.16818 | -99.01326 | 35069 ft | 510 kts | 103° |
| 2026-05-07 12:48 | 39.15311 | -98.92401 | 35075 ft | 510 kts | 103° |
| 2026-05-07 12:49 | 39.13805 | -98.83524 | 35069 ft | 510 kts | 103° |
| 2026-05-07 12:49 | 39.12280 | -98.74580 | 35070 ft | 511 kts | 103° |
| 2026-05-07 12:50 | 39.10746 | -98.65634 | 35073 ft | 511 kts | 103° |
| 2026-05-07 12:50 | 39.09206 | -98.56692 | 35071 ft | 512 kts | 103° |
| 2026-05-07 12:51 | 39.07659 | -98.47743 | 35069 ft | 512 kts | 103° |
| 2026-05-07 12:51 | 39.06103 | -98.38796 | 35070 ft | 513 kts | 103° |
| 2026-05-07 12:52 | 39.04551 | -98.29906 | 35075 ft | 513 kts | 103° |
| 2026-05-07 12:52 | 39.02976 | -98.20945 | 35084 ft | 513 kts | 103° |
| 2026-05-07 12:53 | 39.01397 | -98.11990 | 35075 ft | 514 kts | 103° |
| 2026-05-07 12:53 | 38.99810 | -98.03032 | 35077 ft | 514 kts | 103° |
| 2026-05-07 12:54 | 38.98215 | -97.94078 | 35079 ft | 514 kts | 103° |
| 2026-05-07 12:54 | 38.96610 | -97.85105 | 35085 ft | 514 kts | 103° |
| 2026-05-07 12:55 | 38.95008 | -97.76192 | 35091 ft | 515 kts | 104° |
| 2026-05-07 12:55 | 38.93390 | -97.67227 | 35094 ft | 515 kts | 104° |
| 2026-05-07 12:56 | 38.92137 | -97.58179 | 35094 ft | 515 kts | 92° |
| 2026-05-07 12:56 | 38.92042 | -97.48999 | 35093 ft | 514 kts | 89° |
| 2026-05-07 12:57 | 38.91761 | -97.39816 | 35091 ft | 515 kts | 92° |
| 2026-05-07 12:57 | 38.91385 | -97.30621 | 35097 ft | 516 kts | 92° |
| 2026-05-07 12:58 | 38.91037 | -97.21415 | 35096 ft | 516 kts | 92° |
| 2026-05-07 12:58 | 38.90673 | -97.12204 | 35092 ft | 516 kts | 92° |
| 2026-05-07 12:59 | 38.90301 | -97.03052 | 35095 ft | 517 kts | 92° |
| 2026-05-07 12:59 | 38.89920 | -96.93834 | 35092 ft | 517 kts | 92° |
| 2026-05-07 13:00 | 38.89532 | -96.84612 | 35095 ft | 518 kts | 92° |
| 2026-05-07 13:00 | 38.89135 | -96.75370 | 35094 ft | 518 kts | 92° |
| 2026-05-07 13:01 | 38.88732 | -96.66140 | 35099 ft | 518 kts | 92° |
| 2026-05-07 13:01 | 38.88321 | -96.56892 | 35099 ft | 519 kts | 92° |
| 2026-05-07 13:02 | 38.87902 | -96.47634 | 35102 ft | 519 kts | 92° |
| 2026-05-07 13:02 | 38.87476 | -96.38366 | 35102 ft | 520 kts | 92° |
| 2026-05-07 13:03 | 38.87042 | -96.29110 | 35101 ft | 520 kts | 92° |
| 2026-05-07 13:03 | 38.86602 | -96.19902 | 35103 ft | 520 kts | 92° |
| 2026-05-07 13:04 | 38.86153 | -96.10617 | 35102 ft | 521 kts | 92° |
| 2026-05-07 13:04 | 38.85695 | -96.01323 | 35101 ft | 521 kts | 92° |
| 2026-05-07 13:05 | 38.85229 | -95.92029 | 35093 ft | 522 kts | 92° |
| 2026-05-07 13:05 | 38.84761 | -95.82797 | 35096 ft | 522 kts | 92° |
| 2026-05-07 13:06 | 38.84279 | -95.73488 | 35097 ft | 522 kts | 92° |
| 2026-05-07 13:06 | 38.83791 | -95.64178 | 35097 ft | 523 kts | 92° |
| 2026-05-07 13:07 | 38.83295 | -95.54867 | 35095 ft | 523 kts | 93° |
| 2026-05-07 13:07 | 38.82792 | -95.45555 | 35099 ft | 523 kts | 93° |
| 2026-05-07 13:08 | 38.82284 | -95.36299 | 35109 ft | 524 kts | 93° |
| 2026-05-07 13:08 | 38.81766 | -95.26981 | 35108 ft | 524 kts | 93° |
| 2026-05-07 13:09 | 38.81240 | -95.17660 | 35108 ft | 525 kts | 93° |
| 2026-05-07 13:09 | 38.80705 | -95.08324 | 35116 ft | 525 kts | 93° |
| 2026-05-07 13:10 | 38.80164 | -94.98982 | 35121 ft | 525 kts | 93° |
| 2026-05-07 13:10 | 38.79612 | -94.89635 | 35122 ft | 526 kts | 93° |
| 2026-05-07 13:11 | 38.79055 | -94.80286 | 35121 ft | 526 kts | 93° |
| 2026-05-07 13:11 | 38.78493 | -94.71001 | 35112 ft | 525 kts | 93° |
| 2026-05-07 13:12 | 38.77921 | -94.61676 | 35028 ft | 525 kts | 93° |
| 2026-05-07 13:12 | 38.77342 | -94.52354 | 35025 ft | 524 kts | 94° |
| 2026-05-07 13:13 | 38.76756 | -94.43042 | 35040 ft | 524 kts | 94° |
| 2026-05-07 13:13 | 38.76162 | -94.33739 | 35058 ft | 524 kts | 94° |
| 2026-05-07 13:14 | 38.75561 | -94.24430 | 35114 ft | 524 kts | 94° |
| 2026-05-07 13:14 | 38.74952 | -94.15111 | 35118 ft | 524 kts | 94° |
| 2026-05-07 13:15 | 38.74337 | -94.05809 | 35117 ft | 524 kts | 94° |
| 2026-05-07 13:15 | 38.73717 | -93.96558 | 35119 ft | 525 kts | 94° |
| 2026-05-07 13:16 | 38.73086 | -93.87242 | 35133 ft | 525 kts | 94° |
| 2026-05-07 13:16 | 38.72447 | -93.77917 | 35124 ft | 526 kts | 94° |
| 2026-05-07 13:17 | 38.71799 | -93.68583 | 35129 ft | 526 kts | 95° |
| 2026-05-07 13:17 | 38.71142 | -93.59246 | 35129 ft | 527 kts | 95° |
| 2026-05-07 13:18 | 38.70478 | -93.49887 | 35129 ft | 528 kts | 95° |
| 2026-05-07 13:18 | 38.69809 | -93.40579 | 35131 ft | 528 kts | 95° |
| 2026-05-07 13:19 | 38.69126 | -93.31193 | 35140 ft | 529 kts | 95° |
| 2026-05-07 13:19 | 38.68435 | -93.21793 | 35145 ft | 530 kts | 95° |
| 2026-05-07 13:20 | 38.67737 | -93.12391 | 35137 ft | 531 kts | 96° |
| 2026-05-07 13:20 | 38.67033 | -93.03034 | 35139 ft | 532 kts | 96° |
| 2026-05-07 13:21 | 38.66309 | -92.93606 | 35132 ft | 532 kts | 96° |
| 2026-05-07 13:21 | 38.65586 | -92.84165 | 35129 ft | 534 kts | 96° |
| 2026-05-07 13:22 | 38.64851 | -92.74700 | 35122 ft | 534 kts | 96° |
| 2026-05-07 13:22 | 38.64107 | -92.65234 | 35117 ft | 535 kts | 96° |
| 2026-05-07 13:23 | 38.63356 | -92.55759 | 35116 ft | 536 kts | 97° |
| 2026-05-07 13:23 | 38.62596 | -92.46269 | 35132 ft | 537 kts | 97° |
| 2026-05-07 13:24 | 38.61827 | -92.36751 | 35139 ft | 538 kts | 97° |
| 2026-05-07 13:24 | 38.61049 | -92.27226 | 35150 ft | 539 kts | 97° |
| 2026-05-07 13:25 | 38.60267 | -92.17752 | 35148 ft | 540 kts | 97° |
| 2026-05-07 13:25 | 38.59471 | -92.08206 | 35140 ft | 540 kts | 97° |
| 2026-05-07 13:26 | 38.58666 | -91.98641 | 35131 ft | 541 kts | 98° |
| 2026-05-07 13:26 | 38.57851 | -91.89062 | 35128 ft | 541 kts | 98° |
| 2026-05-07 13:27 | 38.57027 | -91.79491 | 35121 ft | 542 kts | 98° |
| 2026-05-07 13:27 | 38.56195 | -91.69897 | 35111 ft | 543 kts | 98° |
| 2026-05-07 13:28 | 38.55354 | -91.60292 | 35113 ft | 544 kts | 98° |
| 2026-05-07 13:28 | 38.54510 | -91.50738 | 35115 ft | 545 kts | 98° |
| 2026-05-07 13:29 | 38.53650 | -91.41102 | 35117 ft | 546 kts | 99° |
| 2026-05-07 13:29 | 38.52780 | -91.31440 | 35127 ft | 547 kts | 99° |
| 2026-05-07 13:30 | 38.51901 | -91.21770 | 35135 ft | 549 kts | 99° |
| 2026-05-07 13:30 | 38.51011 | -91.12085 | 35142 ft | 549 kts | 99° |
| 2026-05-07 13:31 | 38.50119 | -91.02432 | 35147 ft | 551 kts | 99° |
| 2026-05-07 13:31 | 38.49210 | -90.92712 | 35147 ft | 552 kts | 99° |
| 2026-05-07 13:32 | 38.48292 | -90.82979 | 35139 ft | 553 kts | 100° |
| 2026-05-07 13:32 | 38.47363 | -90.73218 | 35121 ft | 554 kts | 100° |
| 2026-05-07 13:33 | 38.46426 | -90.63458 | 35125 ft | 555 kts | 100° |
| 2026-05-07 13:33 | 38.45477 | -90.53668 | 35128 ft | 556 kts | 100° |
| 2026-05-07 13:34 | 38.44035 | -90.38949 | 35126 ft | 558 kts | 101° |
| 2026-05-07 13:35 | 38.43067 | -90.29181 | 35128 ft | 559 kts | 101° |
| 2026-05-07 13:35 | 38.42085 | -90.19338 | 35128 ft | 560 kts | 101° |
| 2026-05-07 13:36 | 38.41090 | -90.09466 | 35124 ft | 561 kts | 101° |
| 2026-05-07 13:36 | 38.40254 | -90.01248 | 35121 ft | 562 kts | 101° |
| 2026-05-07 13:37 | 38.39240 | -89.91347 | 35123 ft | 564 kts | 102° |
| 2026-05-07 13:37 | 38.38216 | -89.81423 | 35122 ft | 565 kts | 102° |
| 2026-05-07 13:38 | 38.37183 | -89.71491 | 35119 ft | 566 kts | 102° |
| 2026-05-07 13:38 | 38.36144 | -89.61595 | 35120 ft | 567 kts | 102° |
| 2026-05-07 13:39 | 38.35085 | -89.51615 | 35116 ft | 568 kts | 102° |
| 2026-05-07 13:39 | 38.34019 | -89.41619 | 35120 ft | 570 kts | 102° |
| 2026-05-07 13:40 | 38.32941 | -89.31613 | 35128 ft | 571 kts | 103° |
| 2026-05-07 13:40 | 38.31850 | -89.21568 | 35131 ft | 572 kts | 103° |
| 2026-05-07 13:41 | 38.30748 | -89.11506 | 35131 ft | 574 kts | 103° |
| 2026-05-07 13:41 | 38.29633 | -89.01433 | 35134 ft | 575 kts | 103° |
| 2026-05-07 13:42 | 38.28707 | -88.91290 | 35135 ft | 579 kts | 101° |
| 2026-05-07 13:42 | 38.27844 | -88.81163 | 35136 ft | 580 kts | 101° |
| 2026-05-07 13:43 | 38.26949 | -88.70950 | 35130 ft | 581 kts | 102° |
| 2026-05-07 13:43 | 38.26003 | -88.60719 | 35130 ft | 583 kts | 102° |
| 2026-05-07 13:44 | 38.25049 | -88.50512 | 34529 ft | 575 kts | 103° |
| 2026-05-07 13:44 | 38.24572 | -88.45499 | 33794 ft | 566 kts | 103° |
| 2026-05-07 13:44 | 38.24106 | -88.40568 | 33017 ft | 557 kts | 102° |
| 2026-05-07 13:44 | 38.23654 | -88.35712 | 32249 ft | 548 kts | 102° |
| 2026-05-07 13:45 | 38.23036 | -88.30990 | 31502 ft | 531 kts | 112° |
| 2026-05-07 13:45 | 38.21800 | -88.26677 | 30784 ft | 510 kts | 123° |
| 2026-05-07 13:45 | 38.20292 | -88.22653 | 30067 ft | 498 kts | 127° |
| 2026-05-07 13:45 | 38.18636 | -88.18870 | 29498 ft | 479 kts | 131° |
| 2026-05-07 13:46 | 38.16869 | -88.15330 | 29268 ft | 471 kts | 134° |
| 2026-05-07 13:46 | 38.13308 | -88.08347 | 29148 ft | 476 kts | 134° |
| 2026-05-07 13:46 | 38.11545 | -88.04787 | 29138 ft | 487 kts | 133° |
| 2026-05-07 13:47 | 38.09738 | -88.01071 | 29125 ft | 499 kts | 132° |
| 2026-05-07 13:47 | 38.07891 | -87.97274 | 29129 ft | 512 kts | 132° |
| 2026-05-07 13:47 | 38.05997 | -87.93384 | 29134 ft | 524 kts | 132° |
| 2026-05-07 13:48 | 38.02090 | -87.85381 | 29136 ft | 541 kts | 132° |
| 2026-05-07 13:48 | 37.98129 | -87.77260 | 29122 ft | 530 kts | 132° |
| 2026-05-07 13:49 | 37.94339 | -87.69360 | 29110 ft | 523 kts | 133° |
| 2026-05-07 13:49 | 37.90460 | -87.61612 | 29102 ft | 512 kts | 139° |
| 2026-05-07 13:49 | 37.88115 | -87.58383 | 29104 ft | 486 kts | 153° |
| 2026-05-07 13:50 | 37.85477 | -87.55893 | 29115 ft | 473 kts | 158° |
| 2026-05-07 13:50 | 37.83093 | -87.52906 | 29111 ft | 506 kts | 141° |
| 2026-05-07 13:50 | 37.81261 | -87.48977 | 29111 ft | 533 kts | 123° |
| 2026-05-07 13:50 | 37.80163 | -87.44393 | 29114 ft | 557 kts | 107° |
| 2026-05-07 13:51 | 37.79889 | -87.39438 | 29122 ft | 573 kts | 91° |
| 2026-05-07 13:51 | 37.80481 | -87.34410 | 29089 ft | 582 kts | 76° |
| 2026-05-07 13:51 | 37.81871 | -87.29641 | 28573 ft | 572 kts | 60° |
| 2026-05-07 13:51 | 37.83838 | -87.25322 | 28057 ft | 565 kts | 58° |
| 2026-05-07 13:52 | 37.85304 | -87.20706 | 27545 ft | 565 kts | 74° |
| 2026-05-07 13:52 | 37.85930 | -87.15837 | 27050 ft | 557 kts | 90° |
| 2026-05-07 13:52 | 37.85701 | -87.11010 | 26556 ft | 543 kts | 106° |
| 2026-05-07 13:52 | 37.84660 | -87.06533 | 26075 ft | 518 kts | 122° |
| 2026-05-07 13:53 | 37.82946 | -87.02755 | 25596 ft | 487 kts | 137° |
| 2026-05-07 13:53 | 37.80838 | -86.99501 | 25141 ft | 473 kts | 140° |
| 2026-05-07 13:53 | 37.78883 | -86.96145 | 24667 ft | 476 kts | 131° |
| 2026-05-07 13:53 | 37.77445 | -86.92339 | 24190 ft | 486 kts | 115° |
| 2026-05-07 13:54 | 37.76703 | -86.88157 | 23742 ft | 488 kts | 103° |
| 2026-05-07 13:54 | 37.76296 | -86.83903 | 23219 ft | 487 kts | 100° |
| 2026-05-07 13:54 | 37.75932 | -86.79665 | 22675 ft | 484 kts | 101° |
| 2026-05-07 13:54 | 37.75500 | -86.75468 | 22149 ft | 480 kts | 103° |
| 2026-05-07 13:55 | 37.74962 | -86.71306 | 21631 ft | 477 kts | 104° |
| 2026-05-07 13:55 | 37.74399 | -86.67190 | 21126 ft | 474 kts | 104° |
| 2026-05-07 13:55 | 37.73842 | -86.63114 | 20611 ft | 467 kts | 104° |
| 2026-05-07 13:55 | 37.73300 | -86.59104 | 20127 ft | 459 kts | 104° |
| 2026-05-07 13:56 | 37.72772 | -86.55168 | 19633 ft | 451 kts | 101° |
| 2026-05-07 13:56 | 37.72828 | -86.51235 | 19134 ft | 447 kts | 80° |
| 2026-05-07 13:56 | 37.73532 | -86.47450 | 18673 ft | 440 kts | 73° |
| 2026-05-07 13:56 | 37.74343 | -86.43803 | 18180 ft | 433 kts | 73° |
| 2026-05-07 13:57 | 37.75113 | -86.40127 | 17521 ft | 430 kts | 75° |
| 2026-05-07 13:57 | 37.75769 | -86.36455 | 16876 ft | 426 kts | 77° |
| 2026-05-07 13:57 | 37.76110 | -86.32762 | 16238 ft | 422 kts | 91° |
| 2026-05-07 13:57 | 37.75851 | -86.29099 | 15619 ft | 416 kts | 100° |
| 2026-05-07 13:58 | 37.75413 | -86.25508 | 15022 ft | 412 kts | 101° |
| 2026-05-07 13:58 | 37.75001 | -86.21941 | 14434 ft | 408 kts | 98° |
| 2026-05-07 13:58 | 37.74686 | -86.18389 | 13841 ft | 405 kts | 96° |
| 2026-05-07 13:58 | 37.74467 | -86.14867 | 13185 ft | 400 kts | 94° |
| 2026-05-07 13:59 | 37.74270 | -86.11380 | 12541 ft | 395 kts | 94° |
| 2026-05-07 13:59 | 37.74072 | -86.07942 | 11911 ft | 389 kts | 94° |
| 2026-05-07 13:59 | 37.73857 | -86.04566 | 11300 ft | 382 kts | 95° |
| 2026-05-07 13:59 | 37.73614 | -86.01254 | 10695 ft | 375 kts | 95° |
| 2026-05-07 14:00 | 37.73371 | -85.98014 | 10102 ft | 361 kts | 95° |
| 2026-05-07 14:00 | 37.73141 | -85.94944 | 9486 ft | 340 kts | 96° |
| 2026-05-07 14:00 | 37.72927 | -85.92125 | 9203 ft | 314 kts | 95° |
| 2026-05-07 14:00 | 37.72723 | -85.89461 | 8755 ft | 301 kts | 95° |
| 2026-05-07 14:01 | 37.72522 | -85.86840 | 8287 ft | 298 kts | 95° |
| 2026-05-07 14:01 | 37.72328 | -85.84252 | 7846 ft | 294 kts | 95° |
| 2026-05-07 14:01 | 37.72131 | -85.81706 | 7427 ft | 289 kts | 95° |
| 2026-05-07 14:01 | 37.71932 | -85.79194 | 6982 ft | 285 kts | 95° |
| 2026-05-07 14:02 | 37.71730 | -85.76732 | 6622 ft | 279 kts | 95° |
| 2026-05-07 14:02 | 37.71526 | -85.74327 | 6277 ft | 271 kts | 95° |
| 2026-05-07 14:02 | 37.71326 | -85.72009 | 6148 ft | 261 kts | 95° |
| 2026-05-07 14:02 | 37.71126 | -85.69782 | 6060 ft | 251 kts | 94° |
| 2026-05-07 14:03 | 37.70927 | -85.67593 | 5999 ft | 251 kts | 95° |
| 2026-05-07 14:03 | 37.70811 | -85.65401 | 5975 ft | 247 kts | 87° |
| 2026-05-07 14:03 | 37.71320 | -85.63421 | 5984 ft | 235 kts | 47° |
| 2026-05-07 14:03 | 37.72610 | -85.62360 | 6006 ft | 222 kts | 11° |
| 2026-05-07 14:04 | 37.74137 | -85.62129 | 6039 ft | 221 kts | 360° |
| 2026-05-07 14:04 | 37.75661 | -85.62092 | 6026 ft | 215 kts | 357° |
| 2026-05-07 14:04 | 37.77134 | -85.62110 | 6017 ft | 208 kts | 356° |
| 2026-05-07 14:04 | 37.78562 | -85.62150 | 5978 ft | 201 kts | 356° |
| 2026-05-07 14:05 | 37.79928 | -85.62197 | 5962 ft | 193 kts | 356° |
| 2026-05-07 14:05 | 37.81309 | -85.62330 | 6015 ft | 205 kts | 343° |
| 2026-05-07 14:05 | 37.82723 | -85.62868 | 6017 ft | 217 kts | 341° |
| 2026-05-07 14:05 | 37.84176 | -85.63438 | 6016 ft | 219 kts | 341° |
| 2026-05-07 14:06 | 37.85613 | -85.63992 | 6000 ft | 209 kts | 342° |
| 2026-05-07 14:06 | 37.86984 | -85.64496 | 5976 ft | 205 kts | 342° |
| 2026-05-07 14:06 | 37.88368 | -85.64978 | 5979 ft | 206 kts | 343° |
| 2026-05-07 14:06 | 37.89762 | -85.65430 | 5855 ft | 209 kts | 345° |
| 2026-05-07 14:07 | 37.91156 | -85.65837 | 5533 ft | 207 kts | 345° |
| 2026-05-07 14:07 | 37.92543 | -85.66274 | 5261 ft | 204 kts | 345° |
| 2026-05-07 14:07 | 37.93906 | -85.66715 | 5003 ft | 200 kts | 344° |
| 2026-05-07 14:07 | 37.95246 | -85.67154 | 4710 ft | 197 kts | 345° |
| 2026-05-07 14:08 | 37.96557 | -85.67581 | 4516 ft | 193 kts | 345° |
| 2026-05-07 14:08 | 37.97897 | -85.68022 | 4237 ft | 206 kts | 345° |
| 2026-05-07 14:08 | 37.99331 | -85.68496 | 3860 ft | 217 kts | 345° |
| 2026-05-07 14:08 | 38.00812 | -85.68982 | 3573 ft | 222 kts | 345° |
| 2026-05-07 14:09 | 38.02280 | -85.69464 | 3342 ft | 209 kts | 346° |
| 2026-05-07 14:09 | 38.03508 | -85.69858 | 3810 ft | 170 kts | 347° |
| 2026-05-07 14:09 | 38.04682 | -85.70069 | 3412 ft | 171 kts | 349° |
| 2026-05-07 14:09 | 38.05809 | -85.70388 | 3164 ft | 159 kts | 346° |
| 2026-05-07 14:10 | 38.06873 | -85.70770 | 2829 ft | 162 kts | 343° |
| 2026-05-07 14:10 | 38.07960 | -85.71202 | 2442 ft | 160 kts | 343° |
| 2026-05-07 14:10 | 38.08996 | -85.71604 | 2042 ft | 155 kts | 345° |
| 2026-05-07 14:10 | 38.09991 | -85.71967 | 1856 ft | 142 kts | 344° |
| 2026-05-07 14:11 | 38.10920 | -85.72309 | 1501 ft | 138 kts | 345° |
| 2026-05-07 14:11 | 38.11834 | -85.72626 | 1398 ft | 129 kts | 345° |
| 2026-05-07 14:11 | 38.12719 | -85.72902 | 1273 ft | 139 kts | 346° |
| 2026-05-07 14:11 | 38.13693 | -85.73184 | 1233 ft | 146 kts | 347° |
| 2026-05-07 14:12 | 38.14692 | -85.73534 | 906 ft | 156 kts | 343° |
| 2026-05-07 14:12 | 38.15717 | -85.73898 | 568 ft | 145 kts | 346° |
| 2026-05-07 14:12 | 38.16586 | -85.74183 | 481 ft | 109 kts | 346° |
| 2026-05-07 14:12 | 38.17125 | -85.74358 | 480 ft | 58 kts | 345° |
| 2026-05-07 14:13 | 38.17414 | -85.74451 | 483 ft | 31 kts | 346° |
| 2026-05-07 14:13 | 38.17611 | -85.74453 | 482 ft | 28 kts | 27° |
| 2026-05-07 14:13 | 38.17775 | -85.74405 | 481 ft | 23 kts | 342° |
| 2026-05-07 14:13 | 38.17924 | -85.74458 | 486 ft | 21 kts | 345° |
| 2026-05-07 14:14 | 38.18041 | -85.74453 | 486 ft | 16 kts | 63° |
| 2026-05-07 14:14 | 38.18076 | -85.74312 | 480 ft | 17 kts | 75° |
| 2026-05-07 14:14 | 38.18111 | -85.74166 | 487 ft | 18 kts | 71° |
| 2026-05-07 14:14 | 38.18173 | -85.74050 | 485 ft | 16 kts | 56° |
| 2026-05-07 14:15 | 38.18229 | -85.73929 | 486 ft | 16 kts | 60° |
| 2026-05-07 14:15 | 38.18282 | -85.73815 | 484 ft | 14 kts | 59° |
| 2026-05-07 14:15 | 38.18346 | -85.73720 | 483 ft | 14 kts | 13° |
| 2026-05-07 14:15 | 38.18409 | -85.73743 | 487 ft | 2 kts | 250° |
| 2026-05-07 14:16 | 38.18402 | -85.73771 | 482 ft | 5 kts | 256° |
| 2026-05-07 14:16 | 38.18394 | -85.73813 | 485 ft | 4 kts | 256° |
| 2026-05-07 14:16 | 38.18390 | -85.73834 | 484 ft | 0 kts | 256° |